createdAt,value
2019-03-31T00:01:50.026Z,30.37
2019-03-31T00:04:21.222Z,31.43
2019-03-31T00:06:51.464Z,27.10
2019-03-31T00:09:22.873Z,24.73
2019-03-31T00:11:53.240Z,27.73
2019-03-31T00:14:23.463Z,24.60
2019-03-31T00:16:53.710Z,32.63
2019-03-31T00:19:23.907Z,27.67
2019-03-31T00:21:54.128Z,24.73
2019-03-31T00:24:25.363Z,28.30
2019-03-31T00:26:55.660Z,26.03
2019-03-31T00:29:25.869Z,29.83
2019-03-31T00:31:56.207Z,30.07
2019-03-31T00:34:26.460Z,28.93
2019-03-31T00:36:56.848Z,31.03
2019-03-31T00:39:28.026Z,30.70
2019-03-31T00:41:58.318Z,25.23
2019-03-31T00:44:28.573Z,29.77
2019-03-31T00:47:01.966Z,26.97
2019-03-31T00:49:30.838Z,26.03
2019-03-31T00:52:01.169Z,24.90
2019-03-31T00:54:31.414Z,29.57
2019-03-31T00:57:01.649Z,29.67
2019-03-31T00:59:31.852Z,34.23
2019-03-31T01:02:07.133Z,29.13
2019-03-31T01:04:37.670Z,24.10
2019-03-31T01:07:08.737Z,27.60
2019-03-31T01:09:39.247Z,29.13
2019-03-31T01:12:09.607Z,31.40
2019-03-31T01:14:39.951Z,27.93
2019-03-31T01:17:10.959Z,31.60
2019-03-31T01:19:41.213Z,24.20
2019-03-31T01:22:11.540Z,32.03
2019-03-31T01:24:41.918Z,36.20
2019-03-31T01:27:13.807Z,35.70
2019-03-31T01:29:44.135Z,27.23
2019-03-31T01:32:14.498Z,25.07
2019-03-31T01:34:44.727Z,28.67
2019-03-31T01:37:15.182Z,34.43
2019-03-31T01:39:45.527Z,25.10
2019-03-31T01:42:15.907Z,28.07
2019-03-31T01:44:46.106Z,28.70
2019-03-31T01:47:16.375Z,27.57
2019-03-31T01:49:46.639Z,25.03
2019-03-31T01:52:16.918Z,27.30
2019-03-31T01:54:47.187Z,30.30
2019-03-31T01:57:17.394Z,23.70
2019-03-31T01:59:47.634Z,25.13
2019-03-31T02:02:25.995Z,23.23
2019-03-31T02:04:56.323Z,29.97
2019-03-31T02:07:26.658Z,19.77
2019-03-31T02:09:56.896Z,22.90
2019-03-31T02:12:27.119Z,19.87
2019-03-31T02:14:58.475Z,28.60
2019-03-31T02:17:28.708Z,20.57
2019-03-31T02:19:58.957Z,19.63
2019-03-31T02:22:29.139Z,22.30
2019-03-31T02:24:59.424Z,19.03
2019-03-31T02:27:29.751Z,16.10
2019-03-31T02:30:00.026Z,16.03
2019-03-31T02:32:30.215Z,16.57
2019-03-31T02:35:00.535Z,15.67
2019-03-31T02:37:30.781Z,17.83
2019-03-31T02:40:01.071Z,17.13
2019-03-31T02:42:31.421Z,11.07
2019-03-31T02:45:01.688Z,14.53
2019-03-31T02:47:32.049Z,11.13
2019-03-31T02:50:02.312Z,14.17
2019-03-31T02:52:32.576Z,12.10
2019-03-31T02:55:02.866Z,10.13
2019-03-31T02:57:33.211Z,13.37
2019-03-31T03:00:03.797Z,6.87
2019-03-31T03:02:41.925Z,8.37
2019-03-31T03:05:18.923Z,6.60
2019-03-31T03:07:41.409Z,6.97
2019-03-31T03:10:11.822Z,7.07
2019-03-31T03:12:44.664Z,6.37
2019-03-31T03:15:24.050Z,9.40
2019-03-31T03:17:54.264Z,8.10
2019-03-31T03:20:24.551Z,4.20
2019-03-31T03:22:54.733Z,8.00
2019-03-31T03:25:24.975Z,7.50
2019-03-31T03:27:56.195Z,5.50
2019-03-31T03:30:27.474Z,6.67
2019-03-31T03:33:14.795Z,9.07
2019-03-31T03:35:29.695Z,11.43
2019-03-31T03:37:59.989Z,16.23
2019-03-31T03:40:30.167Z,10.93
2019-03-31T03:43:00.477Z,9.10
2019-03-31T03:45:30.723Z,19.27
2019-03-31T03:48:00.988Z,10.87
2019-03-31T03:50:31.204Z,11.80
2019-03-31T03:53:01.471Z,17.10
2019-03-31T03:55:31.755Z,10.97
2019-03-31T03:58:02.948Z,11.93
2019-03-31T04:00:33.199Z,10.10
2019-03-31T04:03:03.450Z,9.37
2019-03-31T04:05:33.636Z,14.37
2019-03-31T04:08:03.816Z,10.77
2019-03-31T04:11:10.833Z,11.60
2019-03-31T04:13:41.082Z,9.00
2019-03-31T04:16:11.477Z,10.30
2019-03-31T04:18:41.692Z,11.77
2019-03-31T04:21:12.017Z,11.07
2019-03-31T04:23:42.406Z,15.57
2019-03-31T04:26:12.622Z,15.57
2019-03-31T04:28:42.922Z,17.53
2019-03-31T04:31:13.226Z,13.57
2019-03-31T04:33:51.685Z,15.23
2019-03-31T04:36:15.698Z,9.43
2019-03-31T04:38:47.295Z,12.90
2019-03-31T04:41:17.568Z,15.30
2019-03-31T04:43:47.831Z,14.40
2019-03-31T04:46:18.107Z,23.97
2019-03-31T04:48:48.395Z,11.63
2019-03-31T04:51:18.591Z,11.67
2019-03-31T04:53:48.795Z,19.03
2019-03-31T04:56:19.079Z,14.73
2019-03-31T04:58:49.375Z,15.47
2019-03-31T05:01:19.584Z,11.93
2019-03-31T05:04:04.014Z,11.27
2019-03-31T05:06:21.651Z,13.20
2019-03-31T05:08:51.891Z,10.93
2019-03-31T05:11:22.167Z,16.50
2019-03-31T05:13:52.427Z,11.73
2019-03-31T05:16:22.668Z,14.40
2019-03-31T05:18:52.960Z,11.80
2019-03-31T05:21:23.219Z,15.17
2019-03-31T05:23:53.414Z,17.23
2019-03-31T05:26:24.658Z,18.00
2019-03-31T05:28:54.907Z,19.37
2019-03-31T05:31:25.111Z,15.00
2019-03-31T05:33:55.363Z,12.77
2019-03-31T05:36:25.631Z,17.07
2019-03-31T05:38:55.819Z,18.97
2019-03-31T05:41:25.995Z,19.20
2019-03-31T05:44:05.624Z,17.63
2019-03-31T05:46:28.080Z,17.40
2019-03-31T05:48:58.368Z,19.57
2019-03-31T05:51:28.615Z,12.77
2019-03-31T05:53:58.896Z,15.83
2019-03-31T05:56:29.298Z,13.53
2019-03-31T05:58:59.635Z,14.27
2019-03-31T06:01:29.986Z,13.90
2019-03-31T06:04:00.312Z,17.10
2019-03-31T06:06:30.671Z,16.47
2019-03-31T06:09:00.864Z,12.17
2019-03-31T06:11:32.676Z,17.40
2019-03-31T06:14:03.045Z,16.00
2019-03-31T06:16:33.543Z,21.67
2019-03-31T06:19:03.838Z,13.50
2019-03-31T06:21:34.307Z,11.00
2019-03-31T06:24:04.498Z,17.70
2019-03-31T06:26:35.827Z,15.30
2019-03-31T06:29:06.180Z,13.30
2019-03-31T06:31:36.472Z,27.60
2019-03-31T06:34:06.772Z,13.57
2019-03-31T06:36:37.051Z,11.87
2019-03-31T06:39:07.817Z,14.77
2019-03-31T06:41:38.008Z,12.77
2019-03-31T06:44:08.235Z,9.17
2019-03-31T06:46:38.456Z,13.00
2019-03-31T06:49:08.802Z,12.70
2019-03-31T06:51:39.128Z,15.43
2019-03-31T06:54:10.324Z,13.67
2019-03-31T06:56:40.742Z,15.10
2019-03-31T06:59:11.016Z,16.00
2019-03-31T07:01:41.254Z,12.87
2019-03-31T07:04:11.503Z,16.77
2019-03-31T07:06:41.766Z,10.50
2019-03-31T07:09:11.951Z,13.97
2019-03-31T07:11:42.282Z,7.43
2019-03-31T07:14:12.508Z,12.30
2019-03-31T07:16:42.916Z,10.73
2019-03-31T07:19:13.154Z,11.57
2019-03-31T07:21:43.514Z,11.87
2019-03-31T07:24:13.805Z,12.93
2019-03-31T07:26:44.032Z,13.53
2019-03-31T07:29:14.250Z,9.07
2019-03-31T07:31:44.474Z,12.80
2019-03-31T07:34:14.774Z,14.53
2019-03-31T07:36:45.025Z,10.93
2019-03-31T07:39:15.433Z,17.07
2019-03-31T07:41:46.187Z,12.17
2019-03-31T07:44:17.696Z,18.07
2019-03-31T07:46:47.959Z,12.80
2019-03-31T07:49:18.164Z,11.23
2019-03-31T07:51:48.412Z,11.30
2019-03-31T07:54:18.617Z,17.67
2019-03-31T07:56:48.841Z,17.20
2019-03-31T07:59:19.098Z,15.70
2019-03-31T08:01:49.295Z,16.47
2019-03-31T08:04:20.568Z,12.33
2019-03-31T08:06:50.752Z,14.70
2019-03-31T08:09:21.664Z,18.87
2019-03-31T08:11:51.979Z,17.10
2019-03-31T08:14:22.258Z,14.20
2019-03-31T08:16:53.475Z,12.43
2019-03-31T08:19:23.715Z,11.83
2019-03-31T08:21:53.972Z,16.33
2019-03-31T08:24:24.158Z,22.70
2019-03-31T08:26:54.383Z,19.17
2019-03-31T08:29:24.616Z,13.03
2019-03-31T08:31:54.972Z,12.93
2019-03-31T08:34:25.487Z,13.60
2019-03-31T08:36:55.788Z,12.37
2019-03-31T08:39:26.010Z,11.80
2019-03-31T08:41:56.477Z,12.70
2019-03-31T08:44:27.667Z,14.77
2019-03-31T08:46:57.872Z,15.90
2019-03-31T08:49:28.116Z,18.30
2019-03-31T08:51:59.438Z,11.57
2019-03-31T08:54:29.682Z,14.03
2019-03-31T08:57:00.075Z,16.30
2019-03-31T08:59:30.379Z,10.13
2019-03-31T09:02:19.840Z,13.33
2019-03-31T09:04:50.983Z,18.27
2019-03-31T09:07:21.164Z,14.60
2019-03-31T09:09:54.521Z,13.33
2019-03-31T09:12:24.772Z,13.77
2019-03-31T09:14:55.163Z,16.03
2019-03-31T09:17:25.431Z,9.30
2019-03-31T09:19:55.656Z,9.50
2019-03-31T09:22:25.823Z,13.93
2019-03-31T09:24:56.046Z,9.27
2019-03-31T09:27:26.307Z,9.80
2019-03-31T09:29:57.696Z,17.17
2019-03-31T09:32:27.988Z,11.80
2019-03-31T09:34:59.794Z,16.00
2019-03-31T09:37:30.075Z,11.67
2019-03-31T09:40:00.412Z,14.07
2019-03-31T09:42:30.764Z,10.57
2019-03-31T09:45:01.087Z,9.97
2019-03-31T09:47:31.347Z,10.97
2019-03-31T09:50:01.672Z,16.03
2019-03-31T09:52:31.952Z,20.60
2019-03-31T09:55:02.279Z,9.00
2019-03-31T09:57:32.491Z,10.90
2019-03-31T10:00:03.102Z,16.13
2019-03-31T10:02:33.908Z,9.23
2019-03-31T10:05:04.978Z,15.07
2019-03-31T10:07:35.733Z,14.07
2019-03-31T10:10:07.140Z,13.97
2019-03-31T10:12:37.380Z,22.17
2019-03-31T10:15:08.442Z,12.97
2019-03-31T10:17:38.614Z,10.70
2019-03-31T10:20:09.306Z,15.67
2019-03-31T10:22:39.472Z,14.30
2019-03-31T10:25:13.130Z,14.77
2019-03-31T10:27:41.875Z,8.17
2019-03-31T10:30:12.566Z,16.03
2019-03-31T10:32:42.841Z,14.60
2019-03-31T10:35:13.174Z,12.85
2019-03-31T10:37:44.422Z,13.33
2019-03-31T10:40:14.951Z,10.77
2019-03-31T10:42:45.155Z,11.00
2019-03-31T10:45:15.481Z,15.13
2019-03-31T10:47:48.760Z,11.27
2019-03-31T10:50:19.275Z,11.57
2019-03-31T10:52:49.847Z,11.27
2019-03-31T10:55:20.779Z,11.27
2019-03-31T10:57:51.015Z,11.53
2019-03-31T11:00:32.272Z,13.37
2019-03-31T11:03:03.971Z,9.70
2019-03-31T11:05:34.330Z,11.00
2019-03-31T11:08:04.738Z,7.43
2019-03-31T11:10:36.552Z,9.83
2019-03-31T11:13:07.610Z,9.60
2019-03-31T11:15:38.074Z,13.80
2019-03-31T11:18:08.357Z,7.83
2019-03-31T11:20:38.547Z,8.13
2019-03-31T11:23:16.878Z,11.50
2019-03-31T11:25:47.228Z,9.18
2019-03-31T11:28:17.540Z,6.73
2019-03-31T11:30:47.866Z,10.80
2019-03-31T11:33:18.124Z,8.63
2019-03-31T11:35:48.430Z,7.42
2019-03-31T11:38:18.723Z,7.85
2019-03-31T11:40:48.933Z,10.77
2019-03-31T11:43:19.192Z,9.70
2019-03-31T11:45:49.404Z,8.48
2019-03-31T11:48:19.883Z,7.97
2019-03-31T11:50:50.216Z,8.58
2019-03-31T11:53:20.483Z,8.00
2019-03-31T11:55:50.763Z,7.53
2019-03-31T11:58:21.014Z,6.33
2019-03-31T12:00:54.093Z,8.08
2019-03-31T12:03:25.348Z,7.10
2019-03-31T12:05:55.736Z,7.00
2019-03-31T12:08:26.019Z,7.72
2019-03-31T12:10:56.319Z,7.05
2019-03-31T12:13:26.560Z,10.23
2019-03-31T12:15:56.735Z,9.30
2019-03-31T12:18:26.998Z,6.97
2019-03-31T12:20:57.182Z,8.15
2019-03-31T12:23:27.527Z,5.90
2019-03-31T12:25:57.769Z,5.42
2019-03-31T12:28:29.029Z,7.40
2019-03-31T12:30:59.313Z,4.90
2019-03-31T12:33:29.662Z,3.93
2019-03-31T12:36:00.229Z,4.92
2019-03-31T12:38:30.488Z,8.78
2019-03-31T12:41:00.894Z,6.08
2019-03-31T12:43:31.326Z,7.73
2019-03-31T12:46:01.589Z,4.35
2019-03-31T12:48:31.910Z,7.62
2019-03-31T12:51:02.325Z,9.45
2019-03-31T12:53:32.530Z,4.62
2019-03-31T12:56:02.863Z,7.05
2019-03-31T12:58:33.080Z,4.12
2019-03-31T13:01:03.338Z,6.70
2019-03-31T13:03:33.571Z,5.25
2019-03-31T13:06:04.948Z,6.95
2019-03-31T13:08:35.188Z,5.50
2019-03-31T13:11:05.491Z,6.30
2019-03-31T13:13:35.796Z,4.95
2019-03-31T13:16:06.014Z,5.67
2019-03-31T13:18:36.331Z,6.22
2019-03-31T13:21:07.203Z,3.85
2019-03-31T13:23:37.450Z,3.80
2019-03-31T13:26:07.706Z,6.28
2019-03-31T13:28:37.924Z,5.62
2019-03-31T13:31:08.154Z,3.70
2019-03-31T13:33:38.346Z,7.12
2019-03-31T13:36:08.647Z,4.17
2019-03-31T13:38:38.888Z,6.35
2019-03-31T13:41:09.195Z,6.25
2019-03-31T13:43:39.537Z,4.25
2019-03-31T13:46:09.883Z,5.58
2019-03-31T13:48:40.102Z,3.87
2019-03-31T13:51:10.343Z,7.00
2019-03-31T13:53:40.523Z,6.50
2019-03-31T13:56:11.165Z,5.53
2019-03-31T13:58:42.036Z,7.17
2019-03-31T14:01:13.393Z,8.90
2019-03-31T14:03:43.964Z,3.60
2019-03-31T14:06:14.547Z,6.00
2019-03-31T14:08:54.306Z,6.87
2019-03-31T14:11:25.951Z,6.90
2019-03-31T14:13:56.314Z,10.85
2019-03-31T14:16:29.075Z,3.90
2019-03-31T14:18:58.604Z,6.70
2019-03-31T14:21:28.921Z,8.90
2019-03-31T14:23:59.344Z,7.90
2019-03-31T14:26:29.552Z,5.13
2019-03-31T14:28:59.823Z,5.17
2019-03-31T14:31:30.169Z,5.00
2019-03-31T14:34:00.351Z,6.53
2019-03-31T14:36:30.595Z,9.45
2019-03-31T14:39:00.862Z,8.48
2019-03-31T14:41:32.672Z,5.72
2019-03-31T14:44:03.046Z,5.83
2019-03-31T14:46:33.979Z,6.87
2019-03-31T14:49:04.440Z,4.87
2019-03-31T14:51:34.717Z,7.60
2019-03-31T14:54:04.943Z,15.30
2019-03-31T14:56:35.235Z,11.05
2019-03-31T14:59:05.428Z,7.27
2019-03-31T15:01:35.727Z,8.73
2019-03-31T15:04:06.366Z,9.63
2019-03-31T15:06:36.650Z,5.63
2019-03-31T15:09:08.311Z,8.53
2019-03-31T15:11:38.552Z,3.40
2019-03-31T15:14:08.742Z,5.33
2019-03-31T15:16:38.956Z,8.77
2019-03-31T15:19:09.195Z,4.90
2019-03-31T15:21:43.832Z,6.90
2019-03-31T15:24:11.383Z,5.67
2019-03-31T15:26:41.655Z,9.30
2019-03-31T15:29:12.011Z,4.80
2019-03-31T15:31:42.364Z,8.87
2019-03-31T15:34:12.903Z,5.37
2019-03-31T15:36:43.215Z,11.80
2019-03-31T15:39:13.495Z,5.37
2019-03-31T15:41:43.706Z,3.73
2019-03-31T15:44:14.134Z,5.20
2019-03-31T15:46:44.515Z,5.10
2019-03-31T15:49:14.753Z,6.50
2019-03-31T15:51:45.022Z,4.83
2019-03-31T15:54:15.247Z,5.87
2019-03-31T15:56:45.614Z,6.83
2019-03-31T15:59:16.862Z,2.60
2019-03-31T16:01:47.119Z,7.13
2019-03-31T16:04:17.367Z,7.20
2019-03-31T16:06:48.790Z,5.37
2019-03-31T16:09:23.547Z,4.20
2019-03-31T16:11:54.087Z,3.43
2019-03-31T16:14:21.443Z,5.33
2019-03-31T16:16:51.113Z,7.07
2019-03-31T16:19:20.843Z,3.57
2019-03-31T16:21:50.537Z,6.00
2019-03-31T16:24:34.192Z,5.63
2019-03-31T16:27:03.888Z,5.50
2019-03-31T16:29:33.600Z,9.47
2019-03-31T16:32:03.367Z,5.90
2019-03-31T16:34:33.086Z,5.20
2019-03-31T16:37:02.844Z,5.90
2019-03-31T16:39:37.763Z,13.27
2019-03-31T16:42:03.970Z,4.23
2019-03-31T16:44:33.815Z,6.37
2019-03-31T16:47:03.709Z,4.47
2019-03-31T16:49:33.455Z,4.90
2019-03-31T16:52:03.112Z,6.03
2019-03-31T16:54:32.886Z,6.47
2019-03-31T16:57:04.683Z,6.13
2019-03-31T16:59:35.529Z,4.53
2019-03-31T17:02:05.464Z,10.63
2019-03-31T17:04:35.212Z,9.30
2019-03-31T17:07:05.039Z,4.93
2019-03-31T17:09:34.919Z,4.93
2019-03-31T17:12:04.891Z,11.00
2019-03-31T17:14:34.651Z,8.03
2019-03-31T17:17:04.451Z,4.53
2019-03-31T17:19:34.184Z,3.67
2019-03-31T17:22:04.005Z,3.80
2019-03-31T17:24:34.708Z,8.20
2019-03-31T17:27:04.434Z,6.70
2019-03-31T17:29:34.307Z,3.80
2019-03-31T17:32:04.120Z,7.97
2019-03-31T17:34:33.893Z,6.70
2019-03-31T17:37:03.546Z,10.50
2019-03-31T17:39:34.331Z,4.67
2019-03-31T17:42:04.032Z,8.73
2019-03-31T17:44:34.806Z,8.50
2019-03-31T17:47:04.603Z,7.93
2019-03-31T17:49:34.339Z,6.67
2019-03-31T17:52:04.057Z,10.23
2019-03-31T17:54:33.812Z,7.07
2019-03-31T17:57:03.479Z,6.27
2019-03-31T17:59:34.329Z,6.73
2019-03-31T18:02:04.356Z,4.67
2019-03-31T18:04:34.012Z,3.40
2019-03-31T18:07:03.864Z,4.87
2019-03-31T18:09:33.615Z,5.43
2019-03-31T18:12:03.301Z,7.23
2019-03-31T18:14:32.984Z,4.63
2019-03-31T18:17:02.731Z,10.13
2019-03-31T18:19:32.479Z,7.90
2019-03-31T18:22:15.617Z,9.47
2019-03-31T18:24:34.464Z,10.63
2019-03-31T18:27:04.267Z,7.20
2019-03-31T18:29:34.003Z,9.67
2019-03-31T18:32:03.711Z,6.57
2019-03-31T18:34:33.543Z,5.33
2019-03-31T18:37:03.374Z,7.63
2019-03-31T18:39:33.068Z,11.77
2019-03-31T18:42:02.805Z,8.67
2019-03-31T18:44:32.468Z,5.57
2019-03-31T18:47:02.257Z,8.67
2019-03-31T18:49:32.008Z,5.83
2019-03-31T18:52:01.657Z,5.13
2019-03-31T18:54:54.118Z,7.53
2019-03-31T18:57:33.939Z,8.00
2019-03-31T19:00:14.888Z,7.17
2019-03-31T19:03:09.516Z,7.87
2019-03-31T19:05:57.108Z,10.40
2019-03-31T19:08:45.999Z,8.07
2019-03-31T19:11:44.099Z,10.63
2019-03-31T19:14:32.893Z,10.83
2019-03-31T19:17:30.214Z,8.43
2019-03-31T19:20:07.888Z,12.73
2019-03-31T19:22:59.743Z,8.03
2019-03-31T19:25:47.261Z,11.20
2019-03-31T19:28:45.219Z,8.70
2019-03-31T19:31:21.971Z,7.53
2019-03-31T19:33:59.660Z,12.73
2019-03-31T19:36:42.977Z,8.97
2019-03-31T19:39:30.374Z,6.97
2019-03-31T19:42:07.688Z,4.30
2019-03-31T19:45:02.600Z,7.33
2019-03-31T19:47:44.147Z,8.77
2019-03-31T19:50:32.591Z,13.10
2019-03-31T19:53:24.567Z,4.70
2019-03-31T19:56:18.389Z,10.17
2019-03-31T19:59:10.216Z,11.07
2019-03-31T20:01:44.546Z,7.40
2019-03-31T20:04:33.452Z,9.30
2019-03-31T20:07:12.699Z,5.30
2019-03-31T20:10:08.176Z,5.57
2019-03-31T20:12:43.847Z,5.70
2019-03-31T20:15:31.422Z,7.10
2019-03-31T20:18:35.280Z,6.50
2019-03-31T20:21:32.134Z,9.17
2019-03-31T20:24:05.363Z,7.40
2019-03-31T20:26:44.251Z,8.57
2019-03-31T20:29:22.386Z,5.50
2019-03-31T20:31:59.148Z,4.83
2019-03-31T20:34:39.701Z,7.23
2019-03-31T20:37:27.451Z,5.37
2019-03-31T20:40:14.863Z,7.77
2019-03-31T20:43:19.168Z,4.00
2019-03-31T20:45:48.877Z,6.40
2019-03-31T20:48:18.843Z,11.43
2019-03-31T20:50:48.645Z,6.53
2019-03-31T20:53:18.397Z,8.27
2019-03-31T20:55:48.183Z,3.53
2019-03-31T20:58:18.207Z,5.43
2019-03-31T21:00:47.916Z,4.13
2019-03-31T21:03:19.529Z,5.20
2019-03-31T21:05:49.785Z,7.93
2019-03-31T21:08:19.520Z,9.43
2019-03-31T21:10:51.288Z,4.07
2019-03-31T21:13:21.146Z,9.63
2019-03-31T21:15:51.018Z,7.37
2019-03-31T21:18:20.834Z,8.00
2019-03-31T21:20:50.516Z,7.03
2019-03-31T21:23:20.214Z,8.47
2019-03-31T21:25:49.851Z,9.80
2019-03-31T21:28:19.625Z,6.77
2019-03-31T21:30:49.259Z,8.17
2019-03-31T21:33:18.944Z,6.10
2019-03-31T21:35:48.781Z,8.57
2019-03-31T21:38:18.515Z,5.83
2019-03-31T21:40:48.150Z,10.10
2019-03-31T21:43:17.808Z,6.87
2019-03-31T21:45:47.560Z,4.57
2019-03-31T21:48:17.216Z,5.03
2019-03-31T21:50:46.891Z,4.97
2019-03-31T21:53:17.519Z,5.90
2019-03-31T21:55:47.176Z,6.27
2019-03-31T21:58:16.831Z,9.37
2019-03-31T22:00:50.816Z,7.27
2019-03-31T22:03:21.721Z,7.30
2019-03-31T22:05:51.546Z,5.87
2019-03-31T22:08:21.391Z,8.93
2019-03-31T22:10:51.059Z,8.70
2019-03-31T22:13:20.752Z,6.87
2019-03-31T22:15:50.477Z,6.17
2019-03-31T22:18:20.191Z,4.60
2019-03-31T22:20:49.850Z,6.80
2019-03-31T22:23:19.739Z,12.20
2019-03-31T22:25:49.370Z,9.07
2019-03-31T22:28:19.008Z,7.70
2019-03-31T22:30:49.688Z,5.30
2019-03-31T22:33:19.595Z,7.50
2019-03-31T22:36:07.265Z,6.47
2019-03-31T22:38:36.888Z,5.50
2019-03-31T22:41:06.524Z,4.13
2019-03-31T22:43:36.152Z,3.83
2019-03-31T22:46:05.875Z,5.20
2019-03-31T22:48:35.506Z,4.23
2019-03-31T22:51:05.160Z,7.60
2019-03-31T22:53:34.787Z,8.83
2019-03-31T22:56:04.525Z,6.37
2019-03-31T22:58:34.147Z,7.53
2019-03-31T23:01:03.985Z,8.47
2019-03-31T23:03:33.690Z,5.90
2019-03-31T23:06:04.387Z,7.77
2019-03-31T23:08:34.023Z,5.57
2019-03-31T23:11:03.939Z,7.43
2019-03-31T23:13:33.562Z,4.20
2019-03-31T23:16:03.362Z,2.40
2019-03-31T23:18:33.971Z,7.83
2019-03-31T23:21:03.691Z,3.93
2019-03-31T23:23:33.412Z,3.47
2019-03-31T23:26:03.074Z,8.33
2019-03-31T23:28:32.716Z,6.97
2019-03-31T23:31:03.796Z,4.17
2019-03-31T23:33:33.599Z,5.13
2019-03-31T23:36:03.235Z,4.77
2019-03-31T23:38:32.873Z,4.43
2019-03-31T23:41:02.522Z,6.87
2019-03-31T23:43:32.167Z,6.57
2019-03-31T23:46:01.802Z,6.90
2019-03-31T23:48:31.527Z,5.40
2019-03-31T23:51:01.148Z,5.47
2019-03-31T23:53:30.791Z,5.33
2019-03-31T23:56:00.499Z,4.07
2019-03-31T23:58:30.144Z,5.07
